createdAt,value
2023-02-20T00:01:00.734Z,100.00
2023-02-20T00:03:27.457Z,99.83
2023-02-20T00:05:54.008Z,100.00
2023-02-20T00:08:20.599Z,100.00
2023-02-20T00:10:47.354Z,100.00
2023-02-20T00:13:14.098Z,100.00
2023-02-20T00:15:40.613Z,100.00
2023-02-20T00:18:07.192Z,100.00
2023-02-20T00:20:33.866Z,100.00
2023-02-20T00:23:00.415Z,100.00
2023-02-20T00:25:26.967Z,100.00
2023-02-20T00:27:53.556Z,100.00
2023-02-20T00:30:22.480Z,100.00
2023-02-20T00:32:52.691Z,100.00
2023-02-20T00:35:21.039Z,98.12
2023-02-20T00:37:48.137Z,99.93
2023-02-20T00:40:16.070Z,100.00
2023-02-20T00:42:43.070Z,100.00
2023-02-20T00:45:10.337Z,100.00
2023-02-20T00:47:37.000Z,100.00
2023-02-20T00:50:05.191Z,100.00
2023-02-20T00:52:31.732Z,100.00
2023-02-20T00:54:58.254Z,100.00
2023-02-20T00:57:24.856Z,100.00
2023-02-20T00:59:54.411Z,100.00
2023-02-20T01:02:24.755Z,100.00
2023-02-20T01:04:54.096Z,100.00
2023-02-20T01:07:22.935Z,100.00
2023-02-20T01:09:49.470Z,100.00
2023-02-20T01:12:16.324Z,100.00
2023-02-20T01:14:42.977Z,100.00
2023-02-20T01:17:09.687Z,100.00
2023-02-20T01:19:36.228Z,100.00
2023-02-20T01:22:06.342Z,100.00
2023-02-20T01:24:32.858Z,100.00
2023-02-20T01:26:59.381Z,100.00
2023-02-20T01:29:25.868Z,100.00
2023-02-20T01:31:57.074Z,100.00
2023-02-20T01:34:26.337Z,100.00
2023-02-20T01:36:56.272Z,100.00
2023-02-20T01:39:28.211Z,100.00
2023-02-20T01:42:00.168Z,100.00
2023-02-20T01:44:30.617Z,100.00
2023-02-20T01:46:58.620Z,100.00
2023-02-20T01:49:37.759Z,100.00
2023-02-20T01:52:14.208Z,100.00
2023-02-20T01:54:43.688Z,100.00
2023-02-20T01:57:17.057Z,100.00
2023-02-20T01:59:45.316Z,100.00
2023-02-20T02:02:11.987Z,100.00
2023-02-20T02:04:41.343Z,100.00
2023-02-20T02:07:08.113Z,100.00
2023-02-20T02:09:57.086Z,100.00
2023-02-20T02:12:25.808Z,100.00
2023-02-20T02:14:55.817Z,100.00
2023-02-20T02:17:50.990Z,100.00
2023-02-20T02:20:17.446Z,100.00
2023-02-20T02:23:02.013Z,100.00
2023-02-20T02:25:54.545Z,100.00
2023-02-20T02:28:42.582Z,100.00
2023-02-20T02:31:43.236Z,100.00
2023-02-20T02:34:21.257Z,100.00
2023-02-20T02:37:08.361Z,99.24
2023-02-20T02:39:40.908Z,98.99
2023-02-20T02:42:30.604Z,100.00
2023-02-20T02:45:22.859Z,97.87
2023-02-20T02:47:58.841Z,97.57
2023-02-20T02:50:39.731Z,98.44
2023-02-20T02:53:09.471Z,96.51
2023-02-20T02:55:36.517Z,97.60
2023-02-20T02:58:05.485Z,99.49
2023-02-20T03:00:42.861Z,99.59
2023-02-20T03:03:24.528Z,98.08
2023-02-20T03:05:55.269Z,97.70
2023-02-20T03:08:37.977Z,99.78
2023-02-20T03:11:08.818Z,100.00
2023-02-20T03:14:23.032Z,100.00
2023-02-20T03:16:55.192Z,100.00
2023-02-20T03:19:38.817Z,100.00
2023-02-20T03:22:12.891Z,100.00
2023-02-20T03:24:55.325Z,100.00
2023-02-20T03:27:30.209Z,100.00
2023-02-20T03:30:02.334Z,100.00
2023-02-20T03:32:51.248Z,98.05
2023-02-20T03:35:38.530Z,97.68
2023-02-20T03:38:28.303Z,94.00
2023-02-20T03:41:17.326Z,96.02
2023-02-20T03:43:45.880Z,100.00
2023-02-20T03:46:20.953Z,100.00
2023-02-20T03:49:21.277Z,100.00
2023-02-20T03:51:48.290Z,100.00
2023-02-20T03:54:14.990Z,100.00
2023-02-20T03:56:45.293Z,100.00
2023-02-20T03:59:15.247Z,100.00
2023-02-20T04:01:43.663Z,100.00
2023-02-20T04:04:17.342Z,100.00
2023-02-20T04:06:46.644Z,100.00
2023-02-20T04:09:19.193Z,100.00
2023-02-20T04:11:51.813Z,100.00
2023-02-20T04:14:22.891Z,100.00
2023-02-20T04:16:55.493Z,100.00
2023-02-20T04:19:22.231Z,100.00
2023-02-20T04:21:56.187Z,100.00
2023-02-20T04:24:37.591Z,100.00
2023-02-20T04:27:04.326Z,100.00
2023-02-20T04:29:33.557Z,100.00
2023-02-20T04:32:00.156Z,100.00
2023-02-20T04:34:26.678Z,100.00
2023-02-20T04:37:08.109Z,100.00
2023-02-20T04:39:34.598Z,100.00
2023-02-20T04:42:01.151Z,100.00
2023-02-20T04:44:36.832Z,100.00
2023-02-20T04:47:11.223Z,100.00
2023-02-20T04:49:37.722Z,100.00
2023-02-20T04:52:07.018Z,100.00
2023-02-20T04:54:37.829Z,100.00
2023-02-20T04:57:05.434Z,100.00
2023-02-20T04:59:31.994Z,100.00
2023-02-20T05:02:01.089Z,100.00
2023-02-20T05:04:28.455Z,100.00
2023-02-20T05:06:56.092Z,100.00
2023-02-20T05:09:23.337Z,100.00
2023-02-20T05:11:50.299Z,100.00
2023-02-20T05:14:16.868Z,100.00
2023-02-20T05:16:45.617Z,100.00
2023-02-20T05:19:13.516Z,100.00
2023-02-20T05:22:03.293Z,100.00
2023-02-20T05:24:30.635Z,100.00
2023-02-20T05:26:57.199Z,100.00
2023-02-20T05:29:23.705Z,100.00
2023-02-20T05:31:50.388Z,100.00
2023-02-20T05:34:17.230Z,100.00
2023-02-20T05:36:43.710Z,100.00
2023-02-20T05:39:10.200Z,100.00
2023-02-20T05:41:37.804Z,100.00
2023-02-20T05:44:08.632Z,100.00
2023-02-20T05:46:42.721Z,100.00
2023-02-20T05:49:11.880Z,100.00
2023-02-20T05:51:39.179Z,100.00
2023-02-20T05:54:08.652Z,100.00
2023-02-20T05:56:38.944Z,100.00
2023-02-20T05:59:08.391Z,100.00
2023-02-20T06:01:37.358Z,100.00
2023-02-20T06:04:07.191Z,100.00
2023-02-20T06:06:39.731Z,100.00
2023-02-20T06:09:09.042Z,100.00
2023-02-20T06:11:38.630Z,100.00
2023-02-20T06:14:08.876Z,100.00
2023-02-20T06:16:40.134Z,100.00
2023-02-20T06:19:09.620Z,100.00
2023-02-20T06:21:45.424Z,100.00
2023-02-20T06:24:12.052Z,100.00
2023-02-20T06:26:42.442Z,100.00
2023-02-20T06:29:09.903Z,100.00
2023-02-20T06:31:39.558Z,100.00
2023-02-20T06:34:10.200Z,100.00
2023-02-20T06:36:39.698Z,100.00
2023-02-20T06:39:13.990Z,100.00
2023-02-20T06:41:40.889Z,100.00
2023-02-20T06:44:10.551Z,100.00
2023-02-20T06:46:40.127Z,100.00
2023-02-20T06:49:07.858Z,100.00
2023-02-20T06:51:36.765Z,100.00
2023-02-20T06:54:06.326Z,100.00
2023-02-20T06:56:37.380Z,100.00
2023-02-20T06:59:07.462Z,100.00
2023-02-20T07:01:40.242Z,100.00
2023-02-20T07:04:17.362Z,100.00
2023-02-20T07:06:43.984Z,100.00
2023-02-20T07:09:13.300Z,100.00
2023-02-20T07:11:40.514Z,100.00
2023-02-20T07:14:09.762Z,100.00
2023-02-20T07:16:40.107Z,100.00
2023-02-20T07:19:10.413Z,100.00
2023-02-20T07:21:39.969Z,100.00
2023-02-20T07:24:09.409Z,100.00
2023-02-20T07:26:39.406Z,100.00
2023-02-20T07:29:08.975Z,100.00
2023-02-20T07:31:39.420Z,100.00
2023-02-20T07:34:08.747Z,100.00
2023-02-20T07:36:37.371Z,100.00
2023-02-20T07:39:07.416Z,100.00
2023-02-20T07:41:38.699Z,98.42
2023-02-20T07:44:08.679Z,96.81
2023-02-20T07:46:38.405Z,93.68
2023-02-20T07:49:09.094Z,89.02
2023-02-20T07:51:36.716Z,86.69
2023-02-20T07:54:03.285Z,84.23
2023-02-20T07:56:30.253Z,81.99
2023-02-20T07:58:57.993Z,80.42
2023-02-20T08:01:26.210Z,77.79
2023-02-20T08:03:53.175Z,75.10
2023-02-20T08:06:20.515Z,74.95
2023-02-20T08:08:48.716Z,73.57
2023-02-20T08:11:15.247Z,72.43
2023-02-20T08:13:43.385Z,72.47
2023-02-20T08:16:10.021Z,71.63
2023-02-20T08:18:39.545Z,71.58
2023-02-20T08:21:07.454Z,70.51
2023-02-20T08:23:33.985Z,67.98
2023-02-20T08:26:00.561Z,67.95
2023-02-20T08:28:27.257Z,66.19
2023-02-20T08:30:53.778Z,66.18
2023-02-20T08:33:20.341Z,64.10
2023-02-20T08:35:48.608Z,64.18
2023-02-20T08:38:35.632Z,64.04
2023-02-20T08:41:10.102Z,62.88
2023-02-20T08:43:40.787Z,62.64
2023-02-20T08:46:10.893Z,62.91
2023-02-20T08:48:41.742Z,62.98
2023-02-20T08:51:08.542Z,63.88
2023-02-20T08:53:37.534Z,65.78
2023-02-20T08:56:07.141Z,65.33
2023-02-20T08:58:33.658Z,66.17
2023-02-20T09:01:00.232Z,67.36
2023-02-20T09:03:27.309Z,68.80
2023-02-20T09:05:53.895Z,69.08
2023-02-20T09:08:20.532Z,69.08
2023-02-20T09:10:47.224Z,67.79
2023-02-20T09:13:14.124Z,68.77
2023-02-20T09:15:40.752Z,67.36
2023-02-20T09:18:13.063Z,68.42
2023-02-20T09:20:40.680Z,67.51
2023-02-20T09:23:07.907Z,66.88
2023-02-20T09:25:36.841Z,66.05
2023-02-20T09:28:03.660Z,63.91
2023-02-20T09:30:30.273Z,64.97
2023-02-20T09:32:56.808Z,64.95
2023-02-20T09:35:29.790Z,62.14
2023-02-20T09:37:56.631Z,61.47
2023-02-20T09:40:29.094Z,61.77
2023-02-20T09:43:15.873Z,59.06
2023-02-20T09:45:51.141Z,59.51
2023-02-20T09:48:51.066Z,60.38
2023-02-20T09:51:24.821Z,59.19
2023-02-20T09:54:02.693Z,61.15
2023-02-20T09:56:33.305Z,61.03
2023-02-20T09:59:33.924Z,61.43
2023-02-20T10:02:26.801Z,59.51
2023-02-20T10:05:01.713Z,60.11
2023-02-20T10:07:37.391Z,59.52
2023-02-20T10:10:19.132Z,57.71
2023-02-20T10:13:00.655Z,56.39
2023-02-20T10:16:00.619Z,56.87
2023-02-20T10:18:33.073Z,56.00
2023-02-20T10:21:11.581Z,53.32
2023-02-20T10:24:04.929Z,52.19
2023-02-20T10:26:44.631Z,51.22
2023-02-20T10:29:18.354Z,49.69
2023-02-20T10:31:52.473Z,51.46
2023-02-20T10:34:29.768Z,49.25
2023-02-20T10:37:04.131Z,48.70
2023-02-20T10:39:32.483Z,48.51
2023-02-20T10:42:08.875Z,47.08
2023-02-20T10:45:00.595Z,48.25
2023-02-20T10:47:50.823Z,46.55
2023-02-20T10:50:29.359Z,45.90
2023-02-20T10:53:08.212Z,46.19
2023-02-20T10:56:19.992Z,44.78
2023-02-20T10:59:07.226Z,44.93
2023-02-20T11:01:38.122Z,43.37
2023-02-20T11:04:15.809Z,43.28
2023-02-20T11:06:55.977Z,41.56
2023-02-20T11:09:23.427Z,42.51
2023-02-20T11:11:50.053Z,40.91
2023-02-20T11:14:41.177Z,39.46
2023-02-20T11:17:19.377Z,38.20
2023-02-20T11:19:53.501Z,38.78
2023-02-20T11:22:43.025Z,37.72
2023-02-20T11:25:21.477Z,35.43
2023-02-20T11:27:50.701Z,36.40
2023-02-20T11:30:31.065Z,34.54
2023-02-20T11:33:15.255Z,35.87
2023-02-20T11:35:47.143Z,35.00
2023-02-20T11:38:29.108Z,35.01
2023-02-20T11:41:01.612Z,35.74
2023-02-20T11:43:34.384Z,35.90
2023-02-20T11:46:13.097Z,36.36
2023-02-20T11:49:00.660Z,36.24
2023-02-20T11:51:42.096Z,36.94
2023-02-20T11:54:10.313Z,36.97
2023-02-20T11:56:52.686Z,37.14
2023-02-20T11:59:27.446Z,37.02
2023-02-20T12:02:00.789Z,36.24
2023-02-20T12:04:27.623Z,35.85
2023-02-20T12:06:54.321Z,36.85
2023-02-20T12:09:26.097Z,36.02
2023-02-20T12:11:56.504Z,35.01
2023-02-20T12:14:23.254Z,35.76
2023-02-20T12:16:49.865Z,37.31
2023-02-20T12:19:38.200Z,36.10
2023-02-20T12:22:42.471Z,35.46
2023-02-20T12:25:21.876Z,34.59
2023-02-20T12:28:00.330Z,35.08
2023-02-20T12:30:39.020Z,35.10
2023-02-20T12:33:15.927Z,35.34
2023-02-20T12:35:59.513Z,34.90
2023-02-20T12:38:49.571Z,35.16
2023-02-20T12:41:30.010Z,35.05
2023-02-20T12:44:13.636Z,35.58
2023-02-20T12:46:54.477Z,34.81
2023-02-20T12:49:58.017Z,35.62
2023-02-20T12:52:57.322Z,34.55
2023-02-20T12:55:53.170Z,34.19
2023-02-20T12:58:39.194Z,34.66
2023-02-20T13:01:14.918Z,34.81
2023-02-20T13:03:52.641Z,33.77
2023-02-20T13:06:32.958Z,34.89
2023-02-20T13:09:08.349Z,33.93
2023-02-20T13:11:41.877Z,36.25
2023-02-20T13:14:14.253Z,36.10
2023-02-20T13:16:44.472Z,36.48
2023-02-20T13:19:39.157Z,36.18
2023-02-20T13:22:07.640Z,36.16
2023-02-20T13:24:41.738Z,36.77
2023-02-20T13:27:28.985Z,36.41
2023-02-20T13:30:01.227Z,35.28
2023-02-20T13:32:33.118Z,35.75
2023-02-20T13:35:44.820Z,35.11
2023-02-20T13:38:13.460Z,36.04
2023-02-20T13:40:42.704Z,35.93
2023-02-20T13:43:15.374Z,35.67
2023-02-20T13:45:44.564Z,36.08
2023-02-20T13:48:20.999Z,36.24
2023-02-20T13:50:47.548Z,35.28
2023-02-20T13:53:14.118Z,34.37
2023-02-20T13:55:43.849Z,34.32
2023-02-20T13:58:15.588Z,34.50
2023-02-20T14:00:47.598Z,34.99
2023-02-20T14:03:34.573Z,34.46
2023-02-20T14:06:13.207Z,36.20
2023-02-20T14:08:42.233Z,36.95
2023-02-20T14:11:12.042Z,36.13
2023-02-20T14:13:44.178Z,35.47
2023-02-20T14:16:44.421Z,35.15
2023-02-20T14:19:32.942Z,34.10
2023-02-20T14:22:34.123Z,34.66
2023-02-20T14:25:25.101Z,34.96
2023-02-20T14:27:52.145Z,34.16
2023-02-20T14:30:23.145Z,33.79
2023-02-20T14:32:55.715Z,34.30
2023-02-20T14:35:46.719Z,34.36
2023-02-20T14:38:34.573Z,33.60
2023-02-20T14:41:13.893Z,33.72
2023-02-20T14:43:44.130Z,34.12
2023-02-20T14:46:29.713Z,34.09
2023-02-20T14:49:12.596Z,34.11
2023-02-20T14:51:43.106Z,34.73
2023-02-20T14:54:22.610Z,33.71
2023-02-20T14:56:50.680Z,34.42
2023-02-20T14:59:33.728Z,33.94
2023-02-20T15:02:03.618Z,33.79
2023-02-20T15:04:30.345Z,34.12
2023-02-20T15:07:06.677Z,33.96
2023-02-20T15:09:38.862Z,34.56
2023-02-20T15:12:09.208Z,34.57
2023-02-20T15:14:43.413Z,34.41
2023-02-20T15:17:12.941Z,33.90
2023-02-20T15:19:41.993Z,34.21
2023-02-20T15:22:30.452Z,33.91
2023-02-20T15:25:26.812Z,33.73
2023-02-20T15:28:18.387Z,35.29
2023-02-20T15:31:12.202Z,35.92
2023-02-20T15:33:57.080Z,34.93
2023-02-20T15:36:26.283Z,35.48
2023-02-20T15:38:55.718Z,35.21
2023-02-20T15:41:23.608Z,35.46
2023-02-20T15:43:51.658Z,35.93
2023-02-20T15:46:20.144Z,35.82
2023-02-20T15:48:47.180Z,36.81
2023-02-20T15:51:22.137Z,36.63
2023-02-20T15:53:51.265Z,36.95
2023-02-20T15:56:18.117Z,37.07
2023-02-20T15:58:46.920Z,37.49
2023-02-20T16:01:13.494Z,37.98
2023-02-20T16:03:51.752Z,38.51
2023-02-20T16:06:23.465Z,38.35
2023-02-20T16:08:51.263Z,39.00
2023-02-20T16:11:23.094Z,39.17
2023-02-20T16:13:55.181Z,39.40
2023-02-20T16:16:44.405Z,39.86
2023-02-20T16:19:18.235Z,40.05
2023-02-20T16:21:58.318Z,40.85
2023-02-20T16:24:25.942Z,40.92
2023-02-20T16:26:52.860Z,40.86
2023-02-20T16:29:22.942Z,41.49
2023-02-20T16:31:55.545Z,41.54
2023-02-20T16:34:24.803Z,41.74
2023-02-20T16:36:52.901Z,41.69
2023-02-20T16:39:26.227Z,42.42
2023-02-20T16:41:53.675Z,42.99
2023-02-20T16:44:42.758Z,43.11
2023-02-20T16:47:18.006Z,43.76
2023-02-20T16:49:44.836Z,44.71
2023-02-20T16:52:26.599Z,45.39
2023-02-20T16:54:55.437Z,45.17
2023-02-20T16:57:23.806Z,45.56
2023-02-20T16:59:55.499Z,45.67
2023-02-20T17:02:26.918Z,45.64
2023-02-20T17:04:53.734Z,46.25
2023-02-20T17:07:20.913Z,46.55
2023-02-20T17:09:47.970Z,46.54
2023-02-20T17:12:18.017Z,46.77
2023-02-20T17:14:45.672Z,47.78
2023-02-20T17:17:16.098Z,48.18
2023-02-20T17:19:44.007Z,48.37
2023-02-20T17:22:13.683Z,48.75
2023-02-20T17:24:43.203Z,48.91
2023-02-20T17:27:13.383Z,49.04
2023-02-20T17:29:46.652Z,49.72
2023-02-20T17:32:16.397Z,50.13
2023-02-20T17:34:46.110Z,51.42
2023-02-20T17:37:14.277Z,51.61
2023-02-20T17:39:43.902Z,51.88
2023-02-20T17:42:15.896Z,52.65
2023-02-20T17:44:43.801Z,53.42
2023-02-20T17:47:10.800Z,53.73
2023-02-20T17:49:40.165Z,53.99
2023-02-20T17:52:07.802Z,54.53
2023-02-20T17:54:34.381Z,54.93
2023-02-20T17:57:01.190Z,55.41
2023-02-20T17:59:28.488Z,55.85
2023-02-20T18:01:55.236Z,56.09
2023-02-20T18:04:22.129Z,56.63
2023-02-20T18:06:49.069Z,56.89
2023-02-20T18:09:17.978Z,57.90
2023-02-20T18:11:46.123Z,58.02
2023-02-20T18:14:13.677Z,57.91
2023-02-20T18:16:41.721Z,58.14
2023-02-20T18:19:14.532Z,58.55
2023-02-20T18:21:44.752Z,58.79
2023-02-20T18:24:13.373Z,59.40
2023-02-20T18:26:42.477Z,59.91
2023-02-20T18:29:09.002Z,60.09
2023-02-20T18:31:35.667Z,60.54
2023-02-20T18:34:02.897Z,60.76
2023-02-20T18:36:32.594Z,60.90
2023-02-20T18:39:00.188Z,61.00
2023-02-20T18:41:38.433Z,61.45
2023-02-20T18:44:05.654Z,61.79
2023-02-20T18:46:34.262Z,62.41
2023-02-20T18:49:02.564Z,62.48
2023-02-20T18:51:42.917Z,62.51
2023-02-20T18:54:16.820Z,64.10
2023-02-20T18:56:48.315Z,64.36
2023-02-20T18:59:16.153Z,64.75
2023-02-20T19:01:46.461Z,64.83
2023-02-20T19:04:16.012Z,64.77
2023-02-20T19:06:46.324Z,62.53
2023-02-20T19:09:18.561Z,62.04
2023-02-20T19:11:52.132Z,63.07
2023-02-20T19:14:19.915Z,62.41
2023-02-20T19:16:54.525Z,63.08
2023-02-20T19:19:25.169Z,63.75
2023-02-20T19:21:53.330Z,63.70
2023-02-20T19:24:21.197Z,64.36
2023-02-20T19:26:47.786Z,65.45
2023-02-20T19:29:14.557Z,66.81
2023-02-20T19:31:43.830Z,67.12
2023-02-20T19:34:13.868Z,68.02
2023-02-20T19:36:46.226Z,67.67
2023-02-20T19:39:15.629Z,68.67
2023-02-20T19:41:48.825Z,69.27
2023-02-20T19:44:16.902Z,68.15
2023-02-20T19:46:46.571Z,67.93
2023-02-20T19:49:17.079Z,68.98
2023-02-20T19:51:47.951Z,68.82
2023-02-20T19:54:18.867Z,68.32
2023-02-20T19:56:49.741Z,68.36
2023-02-20T19:59:16.371Z,69.82
2023-02-20T20:01:56.920Z,70.01
2023-02-20T20:04:25.928Z,70.12
2023-02-20T20:06:53.173Z,70.28
2023-02-20T20:09:35.054Z,70.67
2023-02-20T20:12:02.071Z,71.34
2023-02-20T20:14:28.612Z,71.63
2023-02-20T20:16:55.177Z,72.51
2023-02-20T20:19:21.797Z,73.97
2023-02-20T20:21:49.654Z,74.70
2023-02-20T20:24:16.408Z,74.88
2023-02-20T20:26:48.111Z,75.17
2023-02-20T20:29:17.504Z,75.65
2023-02-20T20:31:46.948Z,75.64
2023-02-20T20:34:16.277Z,74.74
2023-02-20T20:36:44.674Z,74.77
2023-02-20T20:39:11.226Z,75.66
2023-02-20T20:41:44.849Z,76.37
2023-02-20T20:44:14.583Z,76.73
2023-02-20T20:46:41.166Z,76.09
2023-02-20T20:49:14.495Z,76.14
2023-02-20T20:51:44.532Z,75.99
2023-02-20T20:54:15.920Z,76.07
2023-02-20T20:56:47.750Z,76.68
2023-02-20T20:59:15.132Z,77.38
2023-02-20T21:01:43.999Z,76.94
2023-02-20T21:04:14.166Z,78.41
2023-02-20T21:06:40.645Z,80.52
2023-02-20T21:09:07.146Z,82.36
2023-02-20T21:11:35.473Z,82.78
2023-02-20T21:14:02.485Z,82.93
2023-02-20T21:16:29.033Z,83.27
2023-02-20T21:18:55.590Z,83.93
2023-02-20T21:21:27.141Z,82.46
2023-02-20T21:23:53.746Z,80.68
2023-02-20T21:26:20.429Z,78.93
2023-02-20T21:28:46.975Z,82.17
2023-02-20T21:31:17.361Z,84.93
2023-02-20T21:33:48.393Z,86.27
2023-02-20T21:36:18.801Z,86.07
2023-02-20T21:38:45.793Z,85.72
2023-02-20T21:41:35.553Z,85.73
2023-02-20T21:44:20.648Z,86.58
2023-02-20T21:46:49.937Z,87.55
2023-02-20T21:49:19.929Z,87.79
2023-02-20T21:51:46.833Z,88.47
2023-02-20T21:54:15.889Z,87.93
2023-02-20T21:56:42.610Z,86.47
2023-02-20T21:59:09.057Z,85.26
2023-02-20T22:01:37.699Z,85.17
2023-02-20T22:04:05.904Z,84.29
2023-02-20T22:06:32.303Z,84.12
2023-02-20T22:09:17.633Z,84.52
2023-02-20T22:12:11.602Z,83.41
2023-02-20T22:14:59.738Z,83.41
2023-02-20T22:17:47.273Z,82.73
2023-02-20T22:20:32.332Z,81.88
2023-02-20T22:23:20.694Z,82.44
2023-02-20T22:26:08.969Z,83.94
2023-02-20T22:29:01.389Z,85.27
2023-02-20T22:31:47.106Z,81.39
2023-02-20T22:34:32.436Z,81.30
2023-02-20T22:37:18.848Z,81.69
2023-02-20T22:40:04.117Z,84.77
2023-02-20T22:42:49.332Z,84.87
2023-02-20T22:45:34.350Z,86.54
2023-02-20T22:48:19.520Z,87.69
2023-02-20T22:51:10.820Z,89.61
2023-02-20T22:53:55.946Z,91.83
2023-02-20T22:56:41.683Z,92.40
2023-02-20T22:59:27.044Z,91.91
2023-02-20T23:02:30.853Z,91.69
2023-02-20T23:05:16.016Z,92.84
2023-02-20T23:08:01.140Z,89.58
2023-02-20T23:10:46.301Z,89.77
2023-02-20T23:13:31.234Z,93.60
2023-02-20T23:16:16.492Z,94.99
2023-02-20T23:19:01.764Z,95.45
2023-02-20T23:21:46.752Z,96.67
2023-02-20T23:24:31.797Z,96.15
2023-02-20T23:27:16.897Z,97.05
2023-02-20T23:30:01.728Z,96.60
2023-02-20T23:32:46.659Z,97.40
2023-02-20T23:35:31.987Z,97.81
2023-02-20T23:38:16.909Z,97.48
2023-02-20T23:41:01.743Z,94.74
2023-02-20T23:43:48.121Z,94.76
2023-02-20T23:46:33.349Z,94.22
2023-02-20T23:49:18.181Z,92.98
2023-02-20T23:52:14.846Z,93.97
2023-02-20T23:55:01.436Z,91.96
2023-02-20T23:57:46.372Z,90.33
